Terminal Aerodrome Forecast
Issued by NWS

Home | Current Version | Previous Version | Text Only | Print | Product List | Glossary On
Versions: 1 2 3 4 5 6 7 8 9 10 11 12 13 14 15
000
FTUS45 KRIW 271700
TAFBPI
TAF
KBPI 271720Z 2718/2818 33006KT P6SM VCFG FEW004 SCT060
     FM271900 30009KT P6SM SCT060 BKN150
     FM280500 VRB04KT P6SM VCSH BKN040=

USA.gov is the U.S. government's official web portal to all federal, state and local government web resources and services.